createdAt,value
2018-12-27T00:00:29.599Z,30.10
2018-12-27T00:03:10.442Z,28.73
2018-12-27T00:05:51.682Z,28.53
2018-12-27T00:08:33.122Z,29.30
2018-12-27T00:11:14.546Z,30.40
2018-12-27T00:13:55.518Z,27.50
2018-12-27T00:16:25.053Z,27.70
2018-12-27T00:19:13.619Z,31.77
2018-12-27T00:21:54.875Z,28.73
2018-12-27T00:24:35.939Z,27.63
2018-12-27T00:27:17.206Z,28.00
2018-12-27T00:29:58.781Z,28.80
2018-12-27T00:32:39.587Z,28.97
2018-12-27T00:38:06.344Z,28.23
2018-12-27T00:40:47.907Z,29.03
2018-12-27T00:43:29.648Z,27.53
2018-12-27T00:46:11.174Z,29.10
2018-12-27T00:48:52.063Z,29.97
2018-12-27T00:51:33.157Z,28.40
2018-12-27T00:54:14.208Z,28.07
2018-12-27T00:56:55.759Z,29.43
2018-12-27T00:59:37.051Z,29.07
2018-12-27T01:02:18.652Z,28.47
2018-12-27T01:05:00.244Z,29.47
2018-12-27T01:07:41.059Z,30.50
2018-12-27T01:10:22.667Z,27.87
2018-12-27T01:13:04.358Z,28.57
2018-12-27T01:15:45.873Z,26.37
2018-12-27T01:18:27.179Z,28.07
2018-12-27T01:21:08.737Z,27.87
2018-12-27T01:23:49.583Z,28.10
2018-12-27T01:26:19.227Z,27.03
2018-12-27T01:29:07.850Z,28.10
2018-12-27T01:31:56.451Z,28.90
2018-12-27T01:34:37.971Z,29.07
2018-12-27T01:37:19.501Z,28.37
2018-12-27T01:40:03.118Z,27.97
2018-12-27T01:42:45.218Z,25.70
2018-12-27T01:45:26.878Z,27.80
2018-12-27T01:48:07.724Z,29.23
2018-12-27T01:50:49.328Z,27.90
2018-12-27T01:53:31.952Z,28.17
2018-12-27T01:58:47.732Z,28.93
2018-12-27T02:01:36.319Z,29.50
2018-12-27T02:04:17.740Z,29.20
2018-12-27T02:06:58.661Z,29.80
2018-12-27T02:09:40.239Z,28.27
2018-12-27T02:12:20.982Z,28.90
2018-12-27T02:15:02.138Z,27.77
2018-12-27T02:17:43.619Z,29.37
2018-12-27T02:20:25.180Z,28.27
2018-12-27T02:23:06.607Z,28.17
2018-12-27T02:25:47.513Z,27.50
2018-12-27T02:28:28.667Z,27.83
2018-12-27T02:31:10.373Z,30.07
2018-12-27T02:33:51.946Z,28.73
2018-12-27T02:36:32.747Z,28.87
2018-12-27T02:42:26.596Z,28.80
2018-12-27T02:45:07.908Z,29.33
2018-12-27T02:47:49.330Z,28.70
2018-12-27T02:50:30.069Z,27.07
2018-12-27T02:53:11.270Z,29.73
2018-12-27T02:55:52.426Z,27.33
2018-12-27T02:58:33.138Z,29.00
2018-12-27T03:01:14.157Z,29.50
2018-12-27T03:03:54.934Z,28.33
2018-12-27T03:06:36.407Z,27.27
2018-12-27T03:09:18.114Z,28.20
2018-12-27T03:11:58.903Z,28.43
2018-12-27T03:14:40.450Z,27.63
2018-12-27T03:17:21.287Z,29.50
2018-12-27T03:20:02.059Z,30.10
2018-12-27T03:22:43.655Z,28.13
2018-12-27T03:25:25.199Z,28.87
2018-12-27T03:28:06.272Z,29.53
2018-12-27T03:30:47.406Z,27.23
2018-12-27T03:33:28.916Z,27.70
2018-12-27T03:35:58.503Z,28.23
2018-12-27T03:38:47.144Z,28.20
2018-12-27T03:41:35.723Z,29.97
2018-12-27T03:44:17.696Z,27.97
2018-12-27T03:46:58.518Z,29.30
2018-12-27T03:49:40.077Z,27.83
2018-12-27T03:52:21.466Z,28.43
2018-12-27T03:55:02.907Z,28.07
2018-12-27T03:57:44.351Z,28.90
2018-12-27T04:00:25.134Z,29.40
2018-12-27T04:03:06.560Z,28.10
2018-12-27T04:05:47.338Z,28.10
2018-12-27T04:08:28.687Z,28.20
2018-12-27T04:11:10.663Z,29.53
2018-12-27T04:13:52.165Z,29.63
2018-12-27T04:16:33.567Z,28.90
2018-12-27T04:19:14.485Z,29.63
2018-12-27T04:21:55.713Z,26.70
2018-12-27T04:24:37.230Z,28.87
2018-12-27T04:27:18.051Z,27.93
2018-12-27T04:29:59.349Z,26.23
2018-12-27T04:32:40.025Z,27.03
2018-12-27T04:35:22.825Z,28.17
2018-12-27T04:38:03.857Z,26.80
2018-12-27T04:40:45.184Z,27.90
2018-12-27T04:43:26.627Z,26.93
2018-12-27T04:46:07.559Z,28.17
2018-12-27T04:48:48.831Z,27.47
2018-12-27T04:51:30.332Z,25.77
2018-12-27T04:54:11.763Z,26.37
2018-12-27T04:56:52.596Z,26.60
2018-12-27T04:59:33.616Z,26.60
2018-12-27T05:02:14.932Z,30.17
2018-12-27T05:04:56.007Z,27.27
2018-12-27T05:07:37.462Z,25.20
2018-12-27T05:10:19.090Z,25.33
2018-12-27T05:13:00.565Z,26.40
2018-12-27T05:15:42.092Z,26.53
2018-12-27T05:18:25.751Z,24.50
2018-12-27T05:21:07.556Z,25.93
2018-12-27T05:23:48.884Z,25.60
2018-12-27T05:26:30.426Z,24.00
2018-12-27T05:29:11.424Z,25.27
2018-12-27T05:31:54.147Z,24.93
2018-12-27T05:34:35.667Z,24.13
2018-12-27T05:37:18.418Z,23.50
2018-12-27T05:39:59.717Z,24.57
2018-12-27T05:42:40.704Z,23.70
2018-12-27T05:45:21.456Z,22.07
2018-12-27T05:48:03.015Z,22.07
2018-12-27T05:50:44.233Z,22.87
2018-12-27T05:53:25.314Z,23.67
2018-12-27T05:56:06.641Z,23.83
2018-12-27T05:58:48.287Z,23.60
2018-12-27T06:01:29.578Z,23.10
2018-12-27T06:04:10.467Z,24.10
2018-12-27T06:06:51.671Z,23.13
2018-12-27T06:09:33.178Z,21.10
2018-12-27T06:12:16.009Z,23.00
2018-12-27T06:14:56.989Z,24.03
2018-12-27T06:17:37.958Z,22.20
2018-12-27T06:20:19.492Z,22.17
2018-12-27T06:23:01.060Z,22.20
2018-12-27T06:25:42.146Z,23.17
2018-12-27T06:28:23.474Z,22.70
2018-12-27T06:31:05.136Z,24.00
2018-12-27T06:33:46.030Z,23.30
2018-12-27T06:36:27.307Z,23.43
2018-12-27T06:39:08.385Z,23.70
2018-12-27T06:41:49.413Z,25.50
2018-12-27T06:44:31.106Z,24.70
2018-12-27T06:47:12.017Z,24.90
2018-12-27T06:49:53.052Z,25.90
2018-12-27T06:52:34.075Z,23.83
2018-12-27T06:55:14.905Z,24.87
2018-12-27T06:57:56.225Z,23.47
2018-12-27T07:00:38.103Z,23.43
2018-12-27T07:03:19.350Z,23.13
2018-12-27T07:06:00.247Z,23.53
2018-12-27T07:08:41.408Z,23.07
2018-12-27T07:11:22.760Z,23.50
2018-12-27T07:14:04.478Z,22.80
2018-12-27T07:16:45.251Z,24.10
2018-12-27T07:19:26.106Z,23.93
2018-12-27T07:22:07.591Z,22.33
2018-12-27T07:24:49.136Z,22.73
2018-12-27T07:27:29.835Z,22.73
2018-12-27T07:30:11.039Z,24.33
2018-12-27T07:32:52.185Z,21.50
2018-12-27T07:35:33.215Z,22.97
2018-12-27T07:38:14.787Z,22.47
2018-12-27T07:40:57.236Z,21.27
2018-12-27T07:43:39.135Z,22.03
2018-12-27T07:46:20.354Z,22.73
2018-12-27T07:49:00.023Z,22.33
2018-12-27T07:51:29.554Z,22.13
2018-12-27T07:54:18.108Z,23.90
2018-12-27T07:56:59.269Z,21.93
2018-12-27T07:59:40.707Z,23.73
2018-12-27T08:02:21.855Z,21.30
2018-12-27T08:07:48.799Z,20.77
2018-12-27T08:10:30.165Z,21.33
2018-12-27T08:13:11.335Z,20.27
2018-12-27T08:15:52.730Z,20.60
2018-12-27T08:18:33.459Z,22.77
2018-12-27T08:21:14.538Z,19.27
2018-12-27T08:23:55.583Z,20.90
2018-12-27T08:26:37.220Z,20.13
2018-12-27T08:29:18.449Z,21.37
2018-12-27T08:31:59.355Z,21.00
2018-12-27T08:34:40.753Z,20.37
2018-12-27T08:37:22.135Z,20.40
2018-12-27T08:40:05.845Z,26.20
2018-12-27T08:42:47.511Z,20.57
2018-12-27T08:45:29.134Z,21.70
2018-12-27T08:48:09.910Z,22.33
2018-12-27T08:50:51.169Z,20.43
2018-12-27T08:53:20.648Z,19.83
2018-12-27T08:56:09.218Z,21.10
2018-12-27T08:58:57.791Z,20.40
2018-12-27T09:01:40.798Z,19.97
2018-12-27T09:04:21.617Z,19.53
2018-12-27T09:07:02.418Z,19.43
2018-12-27T09:09:43.186Z,19.93
2018-12-27T09:12:26.003Z,19.97
2018-12-27T09:15:06.798Z,20.50
2018-12-27T09:17:48.005Z,21.40
2018-12-27T09:20:29.589Z,22.70
2018-12-27T09:23:11.904Z,22.37
2018-12-27T09:25:53.223Z,21.47
2018-12-27T09:28:34.746Z,20.00
2018-12-27T09:31:14.590Z,20.47
2018-12-27T09:33:56.426Z,22.03
2018-12-27T09:36:37.527Z,21.67
2018-12-27T09:39:20.006Z,22.43
2018-12-27T09:42:01.385Z,20.50
2018-12-27T09:44:42.886Z,21.13
2018-12-27T09:47:25.050Z,20.80
2018-12-27T09:50:06.409Z,19.43
2018-12-27T09:52:47.828Z,19.40
2018-12-27T09:55:29.367Z,20.80
2018-12-27T09:58:10.925Z,21.13
2018-12-27T10:00:52.341Z,21.10
2018-12-27T10:03:34.308Z,21.20
2018-12-27T10:06:15.859Z,21.77
2018-12-27T10:11:41.222Z,20.10
2018-12-27T10:14:22.906Z,20.90
2018-12-27T10:19:55.062Z,19.83
2018-12-27T10:22:35.895Z,20.70
2018-12-27T10:25:18.283Z,19.57
2018-12-27T10:27:59.858Z,21.67
2018-12-27T10:30:41.526Z,20.97
2018-12-27T10:33:22.760Z,19.63
2018-12-27T10:36:03.700Z,18.93
2018-12-27T10:41:27.440Z,20.23
2018-12-27T10:44:10.752Z,19.63
2018-12-27T10:46:54.724Z,18.50
2018-12-27T10:49:36.113Z,19.87
2018-12-27T10:52:18.046Z,20.73
2018-12-27T10:54:59.067Z,21.30
2018-12-27T10:57:40.479Z,21.27
2018-12-27T11:00:21.481Z,20.53
2018-12-27T11:05:48.847Z,18.93
2018-12-27T11:08:32.483Z,19.63
2018-12-27T11:11:13.840Z,19.23
2018-12-27T11:13:55.054Z,19.77
2018-12-27T11:16:36.420Z,19.77
2018-12-27T11:19:17.982Z,20.80
2018-12-27T11:21:59.432Z,20.47
2018-12-27T11:24:40.950Z,20.20
2018-12-27T11:27:23.071Z,21.90
2018-12-27T11:30:07.827Z,19.00
2018-12-27T11:32:51.280Z,20.83
2018-12-27T11:35:32.913Z,19.17
2018-12-27T11:41:04.989Z,19.80
2018-12-27T11:43:46.430Z,22.63
2018-12-27T11:46:27.954Z,20.17
2018-12-27T11:49:09.152Z,20.87
2018-12-27T11:51:50.839Z,20.53
2018-12-27T12:00:00.973Z,22.10
2018-12-27T12:02:31.295Z,19.93
2018-12-27T12:05:20.623Z,22.73
2018-12-27T12:10:47.192Z,19.60
2018-12-27T12:16:12.002Z,20.27
2018-12-27T12:18:53.094Z,23.67
2018-12-27T12:24:19.000Z,19.17
2018-12-27T12:27:00.475Z,19.50
2018-12-27T12:29:42.402Z,20.67
2018-12-27T12:32:24.235Z,19.60
2018-12-27T12:35:05.864Z,19.50
2018-12-27T12:37:50.327Z,18.87
2018-12-27T12:40:31.787Z,19.97
2018-12-27T12:43:20.423Z,19.43
2018-12-27T12:46:09.020Z,19.33
2018-12-27T12:48:50.435Z,19.57
2018-12-27T12:51:20.004Z,20.27
2018-12-27T12:54:08.565Z,19.70
2018-12-27T12:56:57.502Z,20.10
2018-12-27T12:59:38.696Z,20.00
2018-12-27T13:02:20.032Z,20.00
2018-12-27T13:05:01.948Z,21.27
2018-12-27T13:07:43.186Z,19.67
2018-12-27T13:10:24.663Z,20.73
2018-12-27T13:13:05.684Z,19.20
2018-12-27T13:15:47.072Z,20.80
2018-12-27T13:18:28.298Z,20.10
2018-12-27T13:23:56.148Z,21.23
2018-12-27T13:29:15.760Z,20.30
2018-12-27T13:31:57.353Z,22.13
2018-12-27T13:34:38.886Z,21.13
2018-12-27T13:37:19.630Z,19.83
2018-12-27T13:40:01.288Z,22.13
2018-12-27T13:42:42.773Z,22.57
2018-12-27T13:45:24.190Z,22.67
2018-12-27T13:50:48.712Z,20.47
2018-12-27T13:53:30.619Z,21.57
2018-12-27T13:56:11.920Z,21.30
2018-12-27T13:58:53.127Z,22.20
2018-12-27T14:01:35.946Z,23.73
2018-12-27T14:04:05.520Z,20.33
2018-12-27T14:06:54.462Z,22.63
2018-12-27T14:09:35.898Z,21.27
2018-12-27T14:12:17.535Z,21.27
2018-12-27T14:14:59.030Z,26.00
2018-12-27T14:17:40.105Z,23.17
2018-12-27T14:20:21.537Z,26.10
2018-12-27T14:23:03.375Z,23.87
2018-12-27T14:25:44.601Z,22.33
2018-12-27T14:28:26.119Z,22.43
2018-12-27T14:31:07.686Z,22.77
2018-12-27T14:33:48.986Z,22.43
2018-12-27T14:36:32.235Z,23.00
2018-12-27T14:39:13.947Z,22.67
2018-12-27T14:41:55.567Z,24.07
2018-12-27T14:44:36.648Z,22.27
2018-12-27T14:47:18.947Z,23.27
2018-12-27T14:50:00.379Z,22.43
2018-12-27T14:55:23.814Z,24.47
2018-12-27T14:58:06.226Z,23.27
2018-12-27T15:00:48.220Z,24.60
2018-12-27T15:03:29.864Z,24.53
2018-12-27T15:06:15.463Z,25.43
2018-12-27T15:08:57.087Z,24.67
2018-12-27T15:11:38.210Z,25.87
2018-12-27T15:14:19.653Z,24.77
2018-12-27T15:17:01.184Z,21.53
2018-12-27T15:19:42.733Z,22.93
2018-12-27T15:22:24.020Z,23.57
2018-12-27T15:25:05.593Z,25.47
2018-12-27T15:27:47.359Z,22.90
2018-12-27T15:30:29.525Z,23.00
2018-12-27T15:35:53.701Z,27.83
2018-12-27T15:38:34.449Z,26.90
2018-12-27T15:41:15.829Z,27.43
2018-12-27T15:43:59.345Z,30.20
2018-12-27T15:46:40.862Z,25.73
2018-12-27T15:49:23.269Z,26.17
2018-12-27T15:52:07.560Z,23.47
2018-12-27T15:54:49.105Z,24.97
2018-12-27T15:57:30.391Z,24.57
2018-12-27T16:00:11.953Z,28.97
2018-12-27T16:02:53.465Z,27.27
2018-12-27T16:05:34.957Z,29.10
2018-12-27T16:08:16.543Z,25.90
2018-12-27T16:10:58.136Z,26.53
2018-12-27T16:13:39.201Z,31.23
2018-12-27T16:16:20.701Z,32.47
2018-12-27T16:19:02.818Z,33.87
2018-12-27T16:21:44.255Z,31.87
2018-12-27T16:24:25.656Z,28.63
2018-12-27T16:27:08.407Z,38.23
2018-12-27T16:29:49.801Z,53.63
2018-12-27T16:32:31.113Z,41.07
2018-12-27T16:35:13.345Z,50.60
2018-12-27T16:38:03.862Z,47.33
2018-12-27T16:40:45.273Z,48.83
2018-12-27T16:43:26.331Z,35.87
2018-12-27T16:46:08.884Z,37.07
2018-12-27T16:48:50.456Z,29.83
2018-12-27T16:51:32.145Z,26.47
2018-12-27T16:54:13.262Z,26.90
2018-12-27T16:56:54.888Z,27.40
2018-12-27T16:59:36.464Z,30.13
2018-12-27T17:02:18.161Z,27.73
2018-12-27T17:04:59.329Z,28.83
2018-12-27T17:07:40.946Z,28.13
2018-12-27T17:10:21.725Z,27.50
2018-12-27T17:12:51.246Z,29.13
2018-12-27T17:15:39.759Z,30.00
2018-12-27T17:18:21.014Z,31.23
2018-12-27T17:21:02.463Z,28.97
2018-12-27T17:23:44.178Z,29.03
2018-12-27T17:26:25.084Z,29.67
2018-12-27T17:29:05.842Z,30.03
2018-12-27T17:31:47.515Z,27.83
2018-12-27T17:34:28.833Z,29.37
2018-12-27T17:39:53.439Z,31.87
2018-12-27T17:42:34.614Z,30.47
2018-12-27T17:45:15.431Z,29.20
2018-12-27T17:47:57.079Z,30.03
2018-12-27T17:50:41.295Z,28.47
2018-12-27T17:53:23.098Z,30.07
2018-12-27T17:56:04.587Z,29.53
2018-12-27T17:58:46.082Z,31.37
2018-12-27T18:01:27.204Z,30.53
2018-12-27T18:04:08.649Z,31.23
2018-12-27T18:06:51.192Z,36.07
2018-12-27T18:12:15.053Z,32.20
2018-12-27T18:14:59.387Z,35.60
2018-12-27T18:17:28.977Z,33.13
2018-12-27T18:20:17.516Z,32.00
2018-12-27T18:22:58.867Z,36.70
2018-12-27T18:25:41.673Z,49.57
2018-12-27T18:28:22.710Z,40.03
2018-12-27T18:31:03.857Z,43.57
2018-12-27T18:33:44.667Z,44.43
2018-12-27T18:36:26.234Z,35.40
2018-12-27T18:41:51.814Z,35.10
2018-12-27T18:47:16.979Z,34.70
2018-12-27T18:49:58.224Z,34.73
2018-12-27T18:52:39.939Z,34.23
2018-12-27T18:55:22.333Z,33.30
2018-12-27T18:58:03.838Z,30.83
2018-12-27T19:00:45.527Z,32.63
2018-12-27T19:03:28.043Z,32.67
2018-12-27T19:06:09.717Z,32.63
2018-12-27T19:08:50.574Z,30.83
2018-12-27T19:11:32.498Z,31.77
2018-12-27T19:14:02.270Z,32.57
2018-12-27T19:16:51.489Z,33.03
2018-12-27T19:19:32.157Z,32.30
2018-12-27T19:22:12.998Z,31.97
2018-12-27T19:24:42.951Z,32.60
2018-12-27T19:27:32.758Z,34.20
2018-12-27T19:30:15.423Z,34.40
2018-12-27T19:32:56.558Z,32.57
2018-12-27T19:35:38.237Z,34.27
2018-12-27T19:38:19.846Z,34.10
2018-12-27T19:41:01.543Z,34.93
2018-12-27T19:43:43.133Z,36.00
2018-12-27T19:46:25.581Z,57.23
2018-12-27T19:49:07.078Z,47.47
2018-12-27T19:51:48.634Z,37.27
2018-12-27T19:54:32.024Z,37.37
2018-12-27T19:59:50.650Z,38.27
2018-12-27T20:02:39.171Z,37.00
2018-12-27T20:05:20.775Z,37.27
2018-12-27T20:08:02.009Z,36.57
2018-12-27T20:10:44.382Z,38.70
2018-12-27T20:13:26.007Z,39.97
2018-12-27T20:16:08.036Z,38.33
2018-12-27T20:18:49.289Z,39.50
2018-12-27T20:21:30.535Z,49.23
2018-12-27T20:24:12.063Z,36.13
2018-12-27T20:26:53.596Z,38.40
2018-12-27T20:32:13.514Z,35.33
2018-12-27T20:34:43.396Z,34.07
2018-12-27T20:37:31.905Z,36.30
2018-12-27T20:40:20.821Z,36.87
2018-12-27T20:43:01.945Z,34.10
2018-12-27T20:45:44.105Z,34.70
2018-12-27T20:48:25.062Z,34.40
2018-12-27T20:51:05.952Z,34.67
2018-12-27T20:53:48.099Z,35.57
2018-12-27T20:56:29.534Z,35.33
2018-12-27T20:59:11.649Z,33.83
2018-12-27T21:01:52.979Z,35.00
2018-12-27T21:04:34.455Z,35.13
2018-12-27T21:09:59.099Z,33.73
2018-12-27T21:12:38.743Z,38.00
2018-12-27T21:15:20.160Z,35.93
2018-12-27T21:18:00.832Z,40.60
2018-12-27T21:20:42.415Z,36.10
2018-12-27T21:23:23.894Z,34.03
2018-12-27T21:26:05.407Z,34.70
2018-12-27T21:28:46.097Z,35.47
2018-12-27T21:34:13.708Z,37.40
2018-12-27T21:39:39.281Z,34.80
2018-12-27T21:42:19.996Z,36.23
2018-12-27T21:45:00.735Z,37.10
2018-12-27T21:47:30.090Z,36.23
2018-12-27T21:53:14.286Z,34.93
2018-12-27T21:56:02.749Z,35.17
2018-12-27T21:58:43.993Z,37.07
2018-12-27T22:01:25.627Z,36.87
2018-12-27T22:04:06.951Z,34.90
2018-12-27T22:06:48.051Z,35.40
2018-12-27T22:09:29.239Z,34.07
2018-12-27T22:12:10.669Z,36.43
2018-12-27T22:14:51.596Z,33.03
2018-12-27T22:17:33.187Z,35.80
2018-12-27T22:20:17.628Z,33.70
2018-12-27T22:22:58.865Z,32.50
2018-12-27T22:25:40.504Z,38.17
2018-12-27T22:28:21.671Z,37.30
2018-12-27T22:31:02.631Z,36.50
2018-12-27T22:33:44.015Z,36.17
2018-12-27T22:36:25.192Z,35.53
2018-12-27T22:39:07.938Z,36.63
2018-12-27T22:41:49.481Z,38.17
2018-12-27T22:44:30.187Z,35.60
2018-12-27T22:46:59.544Z,36.37
2018-12-27T22:49:47.932Z,35.53
2018-12-27T22:52:37.068Z,35.80
2018-12-27T22:55:17.955Z,34.67
2018-12-27T22:57:58.927Z,36.00
2018-12-27T23:00:40.260Z,35.23
2018-12-27T23:03:21.490Z,37.60
2018-12-27T23:06:02.343Z,37.43
2018-12-27T23:08:44.117Z,38.63
2018-12-27T23:11:25.775Z,38.97
2018-12-27T23:14:14.194Z,37.00
2018-12-27T23:17:02.674Z,37.80
2018-12-27T23:19:43.988Z,36.60
2018-12-27T23:22:25.087Z,37.63
2018-12-27T23:25:06.340Z,36.83
2018-12-27T23:27:47.826Z,39.20
2018-12-27T23:30:32.048Z,36.03
2018-12-27T23:33:13.395Z,37.97
2018-12-27T23:35:54.119Z,38.60
2018-12-27T23:41:20.767Z,38.50
2018-12-27T23:44:04.041Z,37.67
2018-12-27T23:46:45.351Z,36.40
2018-12-27T23:49:26.635Z,37.67
2018-12-27T23:52:07.302Z,37.70
2018-12-27T23:54:48.872Z,35.43
2018-12-27T23:57:30.064Z,35.67
